sensor_id;sensor_type;location;lat;lon;timestamp;P1;durP1;ratioP1;P2;durP2;ratioP2
80179;SDS011;69505;52.134;5.438;2024-01-16T00:00:29;3.85;;;1.90;;
80179;SDS011;69505;52.134;5.438;2024-01-16T00:02:56;6.90;;;1.90;;
80179;SDS011;69505;52.134;5.438;2024-01-16T00:05:22;2.22;;;1.13;;
80179;SDS011;69505;52.134;5.438;2024-01-16T00:07:49;6.05;;;2.40;;
80179;SDS011;69505;52.134;5.438;2024-01-16T00:10:16;2.75;;;1.65;;
80179;SDS011;69505;52.134;5.438;2024-01-16T00:12:42;6.95;;;2.63;;
80179;SDS011;69505;52.134;5.438;2024-01-16T00:15:09;5.30;;;2.70;;
80179;SDS011;69505;52.134;5.438;2024-01-16T00:17:36;7.45;;;2.35;;
80179;SDS011;69505;52.134;5.438;2024-01-16T00:20:03;3.58;;;2.22;;
80179;SDS011;69505;52.134;5.438;2024-01-16T00:22:31;5.38;;;2.03;;
80179;SDS011;69505;52.134;5.438;2024-01-16T00:24:58;4.20;;;1.17;;
80179;SDS011;69505;52.134;5.438;2024-01-16T00:27:25;4.18;;;1.88;;
80179;SDS011;69505;52.134;5.438;2024-01-16T00:29:52;3.35;;;2.00;;
80179;SDS011;69505;52.134;5.438;2024-01-16T00:32:18;4.40;;;1.90;;
80179;SDS011;69505;52.134;5.438;2024-01-16T00:34:45;3.03;;;1.85;;
80179;SDS011;69505;52.134;5.438;2024-01-16T00:37:12;4.13;;;0.75;;
80179;SDS011;69505;52.134;5.438;2024-01-16T00:39:38;4.80;;;2.00;;
80179;SDS011;69505;52.134;5.438;2024-01-16T00:42:05;1.85;;;1.50;;
80179;SDS011;69505;52.134;5.438;2024-01-16T00:44:32;3.15;;;2.20;;
80179;SDS011;69505;52.134;5.438;2024-01-16T00:46:58;4.30;;;2.03;;
80179;SDS011;69505;52.134;5.438;2024-01-16T00:49:28;5.13;;;1.73;;
80179;SDS011;69505;52.134;5.438;2024-01-16T00:51:55;7.32;;;1.90;;
80179;SDS011;69505;52.134;5.438;2024-01-16T00:54:21;2.30;;;2.05;;
80179;SDS011;69505;52.134;5.438;2024-01-16T00:56:48;2.47;;;1.92;;
80179;SDS011;69505;52.134;5.438;2024-01-16T00:59:15;3.53;;;2.08;;
80179;SDS011;69505;52.134;5.438;2024-01-16T01:01:41;2.60;;;1.17;;
80179;SDS011;69505;52.134;5.438;2024-01-16T01:04:08;6.40;;;2.63;;
80179;SDS011;69505;52.134;5.438;2024-01-16T01:06:35;3.78;;;1.17;;
80179;SDS011;69505;52.134;5.438;2024-01-16T01:09:02;7.13;;;2.35;;
80179;SDS011;69505;52.134;5.438;2024-01-16T01:11:29;5.22;;;1.25;;
80179;SDS011;69505;52.134;5.438;2024-01-16T01:13:55;4.05;;;2.00;;
80179;SDS011;69505;52.134;5.438;2024-01-16T01:16:22;5.50;;;1.85;;
80179;SDS011;69505;52.134;5.438;2024-01-16T01:18:49;6.13;;;2.67;;
80179;SDS011;69505;52.134;5.438;2024-01-16T01:21:15;4.82;;;1.73;;
80179;SDS011;69505;52.134;5.438;2024-01-16T01:23:43;4.40;;;1.80;;
80179;SDS011;69505;52.134;5.438;2024-01-16T01:26:10;3.70;;;1.67;;
80179;SDS011;69505;52.134;5.438;2024-01-16T01:28:40;4.75;;;1.83;;
80179;SDS011;69505;52.134;5.438;2024-01-16T01:31:08;7.07;;;2.38;;
80179;SDS011;69505;52.134;5.438;2024-01-16T01:33:39;6.82;;;1.63;;
80179;SDS011;69505;52.134;5.438;2024-01-16T01:36:06;5.72;;;1.92;;
80179;SDS011;69505;52.134;5.438;2024-01-16T01:38:32;2.22;;;1.67;;
80179;SDS011;69505;52.134;5.438;2024-01-16T01:40:59;2.83;;;1.83;;
80179;SDS011;69505;52.134;5.438;2024-01-16T01:43:26;2.95;;;0.70;;
80179;SDS011;69505;52.134;5.438;2024-01-16T01:48:35;3.03;;;1.60;;
80179;SDS011;69505;52.134;5.438;2024-01-16T01:51:03;3.65;;;1.83;;
80179;SDS011;69505;52.134;5.438;2024-01-16T01:53:30;5.10;;;1.95;;
80179;SDS011;69505;52.134;5.438;2024-01-16T01:56:00;2.83;;;1.30;;
80179;SDS011;69505;52.134;5.438;2024-01-16T01:58:30;4.25;;;2.28;;
80179;SDS011;69505;52.134;5.438;2024-01-16T02:00:58;3.92;;;2.13;;
80179;SDS011;69505;52.134;5.438;2024-01-16T02:03:26;2.60;;;1.58;;
80179;SDS011;69505;52.134;5.438;2024-01-16T02:05:55;1.80;;;0.77;;
80179;SDS011;69505;52.134;5.438;2024-01-16T02:08:23;2.90;;;1.55;;
80179;SDS011;69505;52.134;5.438;2024-01-16T02:10:50;2.63;;;1.25;;
80179;SDS011;69505;52.134;5.438;2024-01-16T02:13:18;2.70;;;1.63;;
80179;SDS011;69505;52.134;5.438;2024-01-16T02:15:47;2.58;;;1.65;;
80179;SDS011;69505;52.134;5.438;2024-01-16T02:18:13;4.95;;;1.73;;
80179;SDS011;69505;52.134;5.438;2024-01-16T02:20:40;3.97;;;1.77;;
80179;SDS011;69505;52.134;5.438;2024-01-16T02:23:07;3.38;;;1.42;;
80179;SDS011;69505;52.134;5.438;2024-01-16T02:25:36;5.97;;;1.85;;
80179;SDS011;69505;52.134;5.438;2024-01-16T02:28:03;2.35;;;1.80;;
80179;SDS011;69505;52.134;5.438;2024-01-16T02:30:29;4.15;;;1.77;;
80179;SDS011;69505;52.134;5.438;2024-01-16T02:32:56;3.30;;;1.75;;
80179;SDS011;69505;52.134;5.438;2024-01-16T02:35:23;3.33;;;2.08;;
80179;SDS011;69505;52.134;5.438;2024-01-16T02:37:49;3.75;;;1.88;;
80179;SDS011;69505;52.134;5.438;2024-01-16T02:40:16;2.95;;;1.70;;
80179;SDS011;69505;52.134;5.438;2024-01-16T02:42:42;3.03;;;1.65;;
80179;SDS011;69505;52.134;5.438;2024-01-16T02:45:09;1.48;;;1.23;;
80179;SDS011;69505;52.134;5.438;2024-01-16T02:47:36;3.83;;;1.63;;
80179;SDS011;69505;52.134;5.438;2024-01-16T02:50:02;5.32;;;1.70;;
80179;SDS011;69505;52.134;5.438;2024-01-16T02:52:29;1.83;;;1.33;;
80179;SDS011;69505;52.134;5.438;2024-01-16T02:54:56;1.60;;;1.27;;
80179;SDS011;69505;52.134;5.438;2024-01-16T02:57:22;2.45;;;1.05;;
80179;SDS011;69505;52.134;5.438;2024-01-16T02:59:49;3.42;;;1.75;;
80179;SDS011;69505;52.134;5.438;2024-01-16T03:02:15;4.90;;;1.90;;
80179;SDS011;69505;52.134;5.438;2024-01-16T03:04:42;2.30;;;1.75;;
80179;SDS011;69505;52.134;5.438;2024-01-16T03:07:09;3.25;;;1.77;;
80179;SDS011;69505;52.134;5.438;2024-01-16T03:09:35;5.85;;;2.03;;
80179;SDS011;69505;52.134;5.438;2024-01-16T03:12:02;2.42;;;1.45;;
80179;SDS011;69505;52.134;5.438;2024-01-16T03:14:29;3.45;;;1.63;;
80179;SDS011;69505;52.134;5.438;2024-01-16T03:17:03;2.78;;;0.82;;
80179;SDS011;69505;52.134;5.438;2024-01-16T03:19:30;3.15;;;1.70;;
80179;SDS011;69505;52.134;5.438;2024-01-16T03:21:56;0.88;;;0.47;;
80179;SDS011;69505;52.134;5.438;2024-01-16T03:24:23;1.58;;;1.48;;
80179;SDS011;69505;52.134;5.438;2024-01-16T03:26:50;2.50;;;1.45;;
80179;SDS011;69505;52.134;5.438;2024-01-16T03:29:16;1.52;;;1.20;;
80179;SDS011;69505;52.134;5.438;2024-01-16T03:31:43;1.67;;;1.35;;
80179;SDS011;69505;52.134;5.438;2024-01-16T03:34:10;1.10;;;1.00;;
80179;SDS011;69505;52.134;5.438;2024-01-16T03:36:37;3.78;;;1.50;;
80179;SDS011;69505;52.134;5.438;2024-01-16T03:39:04;3.45;;;1.75;;
80179;SDS011;69505;52.134;5.438;2024-01-16T03:41:31;1.77;;;1.33;;
80179;SDS011;69505;52.134;5.438;2024-01-16T03:43:58;3.75;;;1.55;;
80179;SDS011;69505;52.134;5.438;2024-01-16T03:46:25;1.65;;;1.35;;
80179;SDS011;69505;52.134;5.438;2024-01-16T03:48:51;1.58;;;1.40;;
80179;SDS011;69505;52.134;5.438;2024-01-16T03:51:18;7.75;;;1.55;;
80179;SDS011;69505;52.134;5.438;2024-01-16T03:53:45;2.10;;;1.52;;
80179;SDS011;69505;52.134;5.438;2024-01-16T03:56:12;2.47;;;1.20;;
80179;SDS011;69505;52.134;5.438;2024-01-16T03:58:42;2.15;;;0.80;;
80179;SDS011;69505;52.134;5.438;2024-01-16T04:03:35;1.60;;;1.38;;
80179;SDS011;69505;52.134;5.438;2024-01-16T04:06:02;1.35;;;1.25;;
80179;SDS011;69505;52.134;5.438;2024-01-16T04:08:29;2.60;;;2.40;;
80179;SDS011;69505;52.134;5.438;2024-01-16T04:10:55;1.35;;;1.25;;
80179;SDS011;69505;52.134;5.438;2024-01-16T04:13:22;1.70;;;1.60;;
80179;SDS011;69505;52.134;5.438;2024-01-16T04:15:48;3.10;;;1.45;;
80179;SDS011;69505;52.134;5.438;2024-01-16T04:18:15;2.47;;;1.65;;
80179;SDS011;69505;52.134;5.438;2024-01-16T04:20:42;2.20;;;1.35;;
80179;SDS011;69505;52.134;5.438;2024-01-16T04:23:08;3.22;;;1.45;;
80179;SDS011;69505;52.134;5.438;2024-01-16T04:25:35;2.83;;;1.40;;
80179;SDS011;69505;52.134;5.438;2024-01-16T04:28:01;4.65;;;2.00;;
80179;SDS011;69505;52.134;5.438;2024-01-16T04:30:28;1.90;;;1.17;;
80179;SDS011;69505;52.134;5.438;2024-01-16T04:32:55;2.70;;;1.55;;
80179;SDS011;69505;52.134;5.438;2024-01-16T04:35:22;1.70;;;1.60;;
80179;SDS011;69505;52.134;5.438;2024-01-16T04:37:48;1.88;;;0.45;;
80179;SDS011;69505;52.134;5.438;2024-01-16T04:40:15;1.45;;;1.35;;
80179;SDS011;69505;52.134;5.438;2024-01-16T04:42:42;3.50;;;1.35;;
80179;SDS011;69505;52.134;5.438;2024-01-16T04:45:09;4.03;;;2.05;;
80179;SDS011;69505;52.134;5.438;2024-01-16T04:47:35;5.68;;;2.03;;
80179;SDS011;69505;52.134;5.438;2024-01-16T04:50:02;5.25;;;1.02;;
80179;SDS011;69505;52.134;5.438;2024-01-16T04:52:30;2.60;;;1.55;;
80179;SDS011;69505;52.134;5.438;2024-01-16T04:54:56;2.92;;;1.42;;
80179;SDS011;69505;52.134;5.438;2024-01-16T04:57:23;3.08;;;1.60;;
80179;SDS011;69505;52.134;5.438;2024-01-16T04:59:49;5.93;;;1.52;;
80179;SDS011;69505;52.134;5.438;2024-01-16T05:02:16;4.07;;;1.65;;
80179;SDS011;69505;52.134;5.438;2024-01-16T05:04:44;2.40;;;1.73;;
80179;SDS011;69505;52.134;5.438;2024-01-16T05:07:11;2.97;;;1.40;;
80179;SDS011;69505;52.134;5.438;2024-01-16T05:09:38;2.80;;;1.48;;
80179;SDS011;69505;52.134;5.438;2024-01-16T05:12:04;2.10;;;1.65;;
80179;SDS011;69505;52.134;5.438;2024-01-16T05:14:31;2.03;;;1.83;;
80179;SDS011;69505;52.134;5.438;2024-01-16T05:16:58;2.25;;;2.00;;
80179;SDS011;69505;52.134;5.438;2024-01-16T05:19:24;2.13;;;1.55;;
80179;SDS011;69505;52.134;5.438;2024-01-16T05:21:51;7.95;;;2.70;;
80179;SDS011;69505;52.134;5.438;2024-01-16T05:24:18;2.15;;;1.63;;
80179;SDS011;69505;52.134;5.438;2024-01-16T05:26:44;3.00;;;1.70;;
80179;SDS011;69505;52.134;5.438;2024-01-16T05:29:11;7.35;;;1.58;;
80179;SDS011;69505;52.134;5.438;2024-01-16T05:31:41;2.90;;;1.58;;
80179;SDS011;69505;52.134;5.438;2024-01-16T05:34:08;3.30;;;1.92;;
80179;SDS011;69505;52.134;5.438;2024-01-16T05:36:35;2.85;;;2.10;;
80179;SDS011;69505;52.134;5.438;2024-01-16T05:39:02;3.90;;;1.88;;
80179;SDS011;69505;52.134;5.438;2024-01-16T05:41:32;3.60;;;2.28;;
80179;SDS011;69505;52.134;5.438;2024-01-16T05:44:00;2.42;;;1.98;;
80179;SDS011;69505;52.134;5.438;2024-01-16T05:46:32;4.30;;;1.88;;
80179;SDS011;69505;52.134;5.438;2024-01-16T05:48:59;3.53;;;2.50;;
80179;SDS011;69505;52.134;5.438;2024-01-16T05:51:27;4.13;;;1.98;;
80179;SDS011;69505;52.134;5.438;2024-01-16T05:53:56;3.58;;;1.85;;
80179;SDS011;69505;52.134;5.438;2024-01-16T05:56:22;4.88;;;1.85;;
80179;SDS011;69505;52.134;5.438;2024-01-16T05:58:49;2.95;;;2.35;;
80179;SDS011;69505;52.134;5.438;2024-01-16T06:01:16;2.55;;;1.83;;
80179;SDS011;69505;52.134;5.438;2024-01-16T06:03:42;2.75;;;2.40;;
80179;SDS011;69505;52.134;5.438;2024-01-16T06:06:11;2.50;;;2.10;;
80179;SDS011;69505;52.134;5.438;2024-01-16T06:08:38;3.30;;;1.98;;
80179;SDS011;69505;52.134;5.438;2024-01-16T06:11:05;3.15;;;2.15;;
80179;SDS011;69505;52.134;5.438;2024-01-16T06:13:31;3.20;;;2.13;;
80179;SDS011;69505;52.134;5.438;2024-01-16T06:15:59;3.15;;;2.05;;
80179;SDS011;69505;52.134;5.438;2024-01-16T06:18:25;3.55;;;2.53;;
80179;SDS011;69505;52.134;5.438;2024-01-16T06:20:52;4.65;;;2.55;;
80179;SDS011;69505;52.134;5.438;2024-01-16T06:23:19;2.50;;;1.88;;
80179;SDS011;69505;52.134;5.438;2024-01-16T06:25:45;2.97;;;2.50;;
80179;SDS011;69505;52.134;5.438;2024-01-16T06:28:12;2.70;;;2.17;;
80179;SDS011;69505;52.134;5.438;2024-01-16T06:30:39;5.53;;;2.22;;
80179;SDS011;69505;52.134;5.438;2024-01-16T06:33:05;3.95;;;1.80;;
80179;SDS011;69505;52.134;5.438;2024-01-16T06:35:32;3.10;;;2.35;;
80179;SDS011;69505;52.134;5.438;2024-01-16T06:37:59;2.60;;;2.28;;
80179;SDS011;69505;52.134;5.438;2024-01-16T06:40:25;3.33;;;2.15;;
80179;SDS011;69505;52.134;5.438;2024-01-16T06:42:52;2.85;;;2.05;;
80179;SDS011;69505;52.134;5.438;2024-01-16T06:45:18;3.15;;;1.90;;
80179;SDS011;69505;52.134;5.438;2024-01-16T06:47:45;3.55;;;1.98;;
80179;SDS011;69505;52.134;5.438;2024-01-16T06:50:15;1.65;;;1.55;;
80179;SDS011;69505;52.134;5.438;2024-01-16T06:52:42;2.50;;;1.50;;
80179;SDS011;69505;52.134;5.438;2024-01-16T06:55:08;2.40;;;0.90;;
80179;SDS011;69505;52.134;5.438;2024-01-16T06:57:35;3.88;;;1.95;;
80179;SDS011;69505;52.134;5.438;2024-01-16T07:00:02;3.28;;;1.92;;
80179;SDS011;69505;52.134;5.438;2024-01-16T07:02:29;4.28;;;1.88;;
80179;SDS011;69505;52.134;5.438;2024-01-16T07:04:56;8.25;;;1.13;;
80179;SDS011;69505;52.134;5.438;2024-01-16T07:07:25;2.28;;;1.33;;
80179;SDS011;69505;52.134;5.438;2024-01-16T07:09:52;3.15;;;2.40;;
80179;SDS011;69505;52.134;5.438;2024-01-16T07:12:19;5.28;;;2.65;;
80179;SDS011;69505;52.134;5.438;2024-01-16T07:14:45;2.72;;;2.08;;
80179;SDS011;69505;52.134;5.438;2024-01-16T07:17:12;3.28;;;2.10;;
80179;SDS011;69505;52.134;5.438;2024-01-16T07:19:39;2.47;;;2.25;;
80179;SDS011;69505;52.134;5.438;2024-01-16T07:22:05;6.25;;;2.92;;
80179;SDS011;69505;52.134;5.438;2024-01-16T07:24:32;4.95;;;2.78;;
80179;SDS011;69505;52.134;5.438;2024-01-16T07:26:58;3.92;;;2.85;;
80179;SDS011;69505;52.134;5.438;2024-01-16T07:29:25;4.80;;;2.83;;
80179;SDS011;69505;52.134;5.438;2024-01-16T07:31:52;4.55;;;3.28;;
80179;SDS011;69505;52.134;5.438;2024-01-16T07:34:19;4.25;;;3.28;;
80179;SDS011;69505;52.134;5.438;2024-01-16T07:36:49;4.78;;;3.90;;
80179;SDS011;69505;52.134;5.438;2024-01-16T07:39:15;7.38;;;3.88;;
80179;SDS011;69505;52.134;5.438;2024-01-16T07:41:42;5.85;;;3.45;;
80179;SDS011;69505;52.134;5.438;2024-01-16T07:44:08;4.78;;;3.17;;
80179;SDS011;69505;52.134;5.438;2024-01-16T07:46:35;5.53;;;3.70;;
80179;SDS011;69505;52.134;5.438;2024-01-16T07:49:01;4.75;;;4.18;;
80179;SDS011;69505;52.134;5.438;2024-01-16T07:51:28;3.72;;;2.50;;
80179;SDS011;69505;52.134;5.438;2024-01-16T07:54:04;5.90;;;3.70;;
80179;SDS011;69505;52.134;5.438;2024-01-16T07:56:35;6.32;;;4.05;;
80179;SDS011;69505;52.134;5.438;2024-01-16T07:59:02;4.80;;;3.90;;
80179;SDS011;69505;52.134;5.438;2024-01-16T08:01:29;7.75;;;4.60;;
80179;SDS011;69505;52.134;5.438;2024-01-16T08:03:56;5.07;;;4.10;;
80179;SDS011;69505;52.134;5.438;2024-01-16T08:06:23;6.85;;;3.72;;
80179;SDS011;69505;52.134;5.438;2024-01-16T08:08:50;5.72;;;3.83;;
80179;SDS011;69505;52.134;5.438;2024-01-16T08:11:18;4.90;;;3.92;;
80179;SDS011;69505;52.134;5.438;2024-01-16T08:13:45;5.65;;;4.15;;
80179;SDS011;69505;52.134;5.438;2024-01-16T08:16:11;5.68;;;3.90;;
80179;SDS011;69505;52.134;5.438;2024-01-16T08:18:38;4.97;;;3.95;;
80179;SDS011;69505;52.134;5.438;2024-01-16T08:21:05;6.60;;;4.03;;
80179;SDS011;69505;52.134;5.438;2024-01-16T08:23:32;9.77;;;4.15;;
80179;SDS011;69505;52.134;5.438;2024-01-16T08:25:58;8.32;;;4.45;;
80179;SDS011;69505;52.134;5.438;2024-01-16T08:28:25;6.65;;;3.58;;
80179;SDS011;69505;52.134;5.438;2024-01-16T08:30:52;8.57;;;5.10;;
80179;SDS011;69505;52.134;5.438;2024-01-16T08:33:19;9.93;;;4.05;;
80179;SDS011;69505;52.134;5.438;2024-01-16T08:35:59;5.88;;;3.47;;
80179;SDS011;69505;52.134;5.438;2024-01-16T08:38:25;9.52;;;4.85;;
80179;SDS011;69505;52.134;5.438;2024-01-16T08:40:52;7.03;;;3.78;;
80179;SDS011;69505;52.134;5.438;2024-01-16T08:43:19;5.45;;;3.28;;
80179;SDS011;69505;52.134;5.438;2024-01-16T08:45:45;9.05;;;2.95;;
80179;SDS011;69505;52.134;5.438;2024-01-16T08:48:13;5.55;;;3.72;;
80179;SDS011;69505;52.134;5.438;2024-01-16T08:50:41;4.60;;;3.70;;
80179;SDS011;69505;52.134;5.438;2024-01-16T08:53:08;4.90;;;3.00;;
80179;SDS011;69505;52.134;5.438;2024-01-16T08:55:34;6.65;;;3.83;;
80179;SDS011;69505;52.134;5.438;2024-01-16T08:58:01;4.80;;;3.20;;
80179;SDS011;69505;52.134;5.438;2024-01-16T09:00:28;4.75;;;3.40;;
80179;SDS011;69505;52.134;5.438;2024-01-16T09:02:54;10.88;;;3.42;;
80179;SDS011;69505;52.134;5.438;2024-01-16T09:05:21;5.35;;;3.28;;
80179;SDS011;69505;52.134;5.438;2024-01-16T09:07:51;4.82;;;2.90;;
80179;SDS011;69505;52.134;5.438;2024-01-16T09:10:21;8.93;;;3.60;;
80179;SDS011;69505;52.134;5.438;2024-01-16T09:12:47;5.07;;;3.00;;
80179;SDS011;69505;52.134;5.438;2024-01-16T09:15:15;3.60;;;2.67;;
80179;SDS011;69505;52.134;5.438;2024-01-16T09:17:41;6.57;;;2.92;;
80179;SDS011;69505;52.134;5.438;2024-01-16T09:20:08;8.82;;;2.97;;
80179;SDS011;69505;52.134;5.438;2024-01-16T09:22:35;4.43;;;2.55;;
80179;SDS011;69505;52.134;5.438;2024-01-16T09:25:02;8.20;;;3.28;;
80179;SDS011;69505;52.134;5.438;2024-01-16T09:27:29;4.20;;;3.35;;
80179;SDS011;69505;52.134;5.438;2024-01-16T09:29:55;5.47;;;3.15;;
80179;SDS011;69505;52.134;5.438;2024-01-16T09:32:22;11.43;;;2.20;;
80179;SDS011;69505;52.134;5.438;2024-01-16T09:34:49;6.90;;;3.03;;
80179;SDS011;69505;52.134;5.438;2024-01-16T09:37:16;5.57;;;3.50;;
80179;SDS011;69505;52.134;5.438;2024-01-16T09:39:43;3.20;;;2.33;;
80179;SDS011;69505;52.134;5.438;2024-01-16T09:42:09;5.32;;;2.47;;
80179;SDS011;69505;52.134;5.438;2024-01-16T09:44:36;8.52;;;2.45;;
80179;SDS011;69505;52.134;5.438;2024-01-16T09:47:03;5.15;;;2.70;;
80179;SDS011;69505;52.134;5.438;2024-01-16T09:49:31;4.95;;;3.13;;
80179;SDS011;69505;52.134;5.438;2024-01-16T09:51:58;3.00;;;2.60;;
80179;SDS011;69505;52.134;5.438;2024-01-16T09:54:25;5.38;;;3.17;;
80179;SDS011;69505;52.134;5.438;2024-01-16T09:56:53;4.72;;;2.45;;
80179;SDS011;69505;52.134;5.438;2024-01-16T09:59:24;4.32;;;2.85;;
80179;SDS011;69505;52.134;5.438;2024-01-16T10:01:52;5.05;;;2.58;;
80179;SDS011;69505;52.134;5.438;2024-01-16T10:04:22;3.53;;;2.78;;
80179;SDS011;69505;52.134;5.438;2024-01-16T10:06:48;4.38;;;2.40;;
80179;SDS011;69505;52.134;5.438;2024-01-16T10:09:18;4.32;;;2.45;;
80179;SDS011;69505;52.134;5.438;2024-01-16T10:11:44;6.47;;;2.60;;
80179;SDS011;69505;52.134;5.438;2024-01-16T10:14:12;7.53;;;3.45;;
80179;SDS011;69505;52.134;5.438;2024-01-16T10:17:01;4.18;;;2.42;;
80179;SDS011;69505;52.134;5.438;2024-01-16T10:19:37;4.88;;;2.78;;
80179;SDS011;69505;52.134;5.438;2024-01-16T10:22:21;7.22;;;2.95;;
80179;SDS011;69505;52.134;5.438;2024-01-16T10:25:07;5.13;;;2.60;;
80179;SDS011;69505;52.134;5.438;2024-01-16T10:27:36;7.95;;;2.83;;
80179;SDS011;69505;52.134;5.438;2024-01-16T10:30:04;3.63;;;3.17;;
80179;SDS011;69505;52.134;5.438;2024-01-16T10:32:36;3.90;;;2.30;;
80179;SDS011;69505;52.134;5.438;2024-01-16T10:35:12;5.93;;;2.10;;
80179;SDS011;69505;52.134;5.438;2024-01-16T10:40:30;4.47;;;2.25;;
80179;SDS011;69505;52.134;5.438;2024-01-16T10:42:58;7.18;;;2.50;;
80179;SDS011;69505;52.134;5.438;2024-01-16T10:45:27;5.65;;;3.15;;
80179;SDS011;69505;52.134;5.438;2024-01-16T10:48:12;6.60;;;3.17;;
80179;SDS011;69505;52.134;5.438;2024-01-16T10:50:39;6.07;;;2.63;;
80179;SDS011;69505;52.134;5.438;2024-01-16T10:53:07;4.28;;;1.73;;
80179;SDS011;69505;52.134;5.438;2024-01-16T10:55:42;4.00;;;2.88;;
80179;SDS011;69505;52.134;5.438;2024-01-16T10:58:15;3.50;;;2.33;;
80179;SDS011;69505;52.134;5.438;2024-01-16T11:00:43;6.93;;;3.17;;
80179;SDS011;69505;52.134;5.438;2024-01-16T11:03:19;4.03;;;2.63;;
80179;SDS011;69505;52.134;5.438;2024-01-16T11:05:52;3.85;;;2.72;;
80179;SDS011;69505;52.134;5.438;2024-01-16T11:08:20;2.97;;;2.17;;
80179;SDS011;69505;52.134;5.438;2024-01-16T11:10:47;7.00;;;2.70;;
80179;SDS011;69505;52.134;5.438;2024-01-16T11:13:15;4.75;;;2.83;;
80179;SDS011;69505;52.134;5.438;2024-01-16T11:15:43;9.25;;;2.80;;
80179;SDS011;69505;52.134;5.438;2024-01-16T11:18:09;6.35;;;2.35;;
80179;SDS011;69505;52.134;5.438;2024-01-16T11:20:38;4.43;;;2.15;;
80179;SDS011;69505;52.134;5.438;2024-01-16T11:23:12;4.30;;;2.15;;
80179;SDS011;69505;52.134;5.438;2024-01-16T11:25:40;7.15;;;2.42;;
80179;SDS011;69505;52.134;5.438;2024-01-16T11:28:10;3.25;;;2.30;;
80179;SDS011;69505;52.134;5.438;2024-01-16T11:30:39;5.60;;;2.72;;
80179;SDS011;69505;52.134;5.438;2024-01-16T11:33:07;7.22;;;2.35;;
80179;SDS011;69505;52.134;5.438;2024-01-16T11:35:59;4.88;;;2.55;;
80179;SDS011;69505;52.134;5.438;2024-01-16T11:38:27;4.10;;;2.58;;
80179;SDS011;69505;52.134;5.438;2024-01-16T11:40:56;6.35;;;2.80;;
80179;SDS011;69505;52.134;5.438;2024-01-16T11:43:56;6.15;;;2.60;;
80179;SDS011;69505;52.134;5.438;2024-01-16T11:46:16;3.92;;;2.42;;
80179;SDS011;69505;52.134;5.438;2024-01-16T11:48:42;5.13;;;2.08;;
80179;SDS011;69505;52.134;5.438;2024-01-16T11:51:28;4.15;;;2.60;;
80179;SDS011;69505;52.134;5.438;2024-01-16T11:53:55;6.32;;;2.70;;
80179;SDS011;69505;52.134;5.438;2024-01-16T11:56:26;3.60;;;2.60;;
80179;SDS011;69505;52.134;5.438;2024-01-16T12:04:24;3.63;;;2.15;;
80179;SDS011;69505;52.134;5.438;2024-01-16T12:06:57;4.82;;;2.97;;
80179;SDS011;69505;52.134;5.438;2024-01-16T12:09:27;5.85;;;2.75;;
80179;SDS011;69505;52.134;5.438;2024-01-16T12:11:58;3.58;;;2.28;;
80179;SDS011;69505;52.134;5.438;2024-01-16T12:14:27;5.15;;;2.25;;
80179;SDS011;69505;52.134;5.438;2024-01-16T12:19:40;4.25;;;2.00;;
80179;SDS011;69505;52.134;5.438;2024-01-16T12:22:10;4.78;;;2.25;;
80179;SDS011;69505;52.134;5.438;2024-01-16T12:27:06;3.67;;;2.03;;
80179;SDS011;69505;52.134;5.438;2024-01-16T12:29:34;10.77;;;2.55;;
80179;SDS011;69505;52.134;5.438;2024-01-16T12:32:20;4.65;;;2.22;;
80179;SDS011;69505;52.134;5.438;2024-01-16T12:34:48;4.28;;;2.30;;
80179;SDS011;69505;52.134;5.438;2024-01-16T12:37:15;3.92;;;2.15;;
80179;SDS011;69505;52.134;5.438;2024-01-16T12:39:43;5.50;;;1.63;;
80179;SDS011;69505;52.134;5.438;2024-01-16T12:42:10;3.33;;;2.10;;
80179;SDS011;69505;52.134;5.438;2024-01-16T12:44:38;7.85;;;2.80;;
80179;SDS011;69505;52.134;5.438;2024-01-16T12:47:05;9.23;;;2.75;;
80179;SDS011;69505;52.134;5.438;2024-01-16T12:49:32;10.57;;;3.13;;
80179;SDS011;69505;52.134;5.438;2024-01-16T12:55:01;4.05;;;2.63;;
80179;SDS011;69505;52.134;5.438;2024-01-16T12:57:31;7.22;;;3.08;;
80179;SDS011;69505;52.134;5.438;2024-01-16T12:59:57;6.85;;;2.38;;
80179;SDS011;69505;52.134;5.438;2024-01-16T13:02:27;5.05;;;3.03;;
80179;SDS011;69505;52.134;5.438;2024-01-16T13:04:57;3.85;;;2.42;;
80179;SDS011;69505;52.134;5.438;2024-01-16T13:07:27;5.13;;;2.55;;
80179;SDS011;69505;52.134;5.438;2024-01-16T13:10:06;7.53;;;2.97;;
80179;SDS011;69505;52.134;5.438;2024-01-16T13:12:35;6.18;;;3.03;;
80179;SDS011;69505;52.134;5.438;2024-01-16T13:15:03;6.10;;;2.47;;
80179;SDS011;69505;52.134;5.438;2024-01-16T13:17:32;4.03;;;2.50;;
80179;SDS011;69505;52.134;5.438;2024-01-16T13:20:03;4.72;;;3.60;;
80179;SDS011;69505;52.134;5.438;2024-01-16T13:22:33;4.97;;;2.63;;
80179;SDS011;69505;52.134;5.438;2024-01-16T13:25:11;7.68;;;3.05;;
80179;SDS011;69505;52.134;5.438;2024-01-16T13:27:38;4.03;;;3.20;;
80179;SDS011;69505;52.134;5.438;2024-01-16T13:30:04;6.03;;;3.45;;
80179;SDS011;69505;52.134;5.438;2024-01-16T13:32:32;4.72;;;3.58;;
80179;SDS011;69505;52.134;5.438;2024-01-16T13:35:03;6.32;;;3.38;;
80179;SDS011;69505;52.134;5.438;2024-01-16T13:37:34;3.60;;;2.65;;
80179;SDS011;69505;52.134;5.438;2024-01-16T13:40:04;5.32;;;2.70;;
80179;SDS011;69505;52.134;5.438;2024-01-16T13:42:35;4.95;;;2.97;;
80179;SDS011;69505;52.134;5.438;2024-01-16T13:45:03;4.60;;;3.25;;
80179;SDS011;69505;52.134;5.438;2024-01-16T13:47:31;5.57;;;2.95;;
80179;SDS011;69505;52.134;5.438;2024-01-16T13:49:58;6.40;;;2.85;;
80179;SDS011;69505;52.134;5.438;2024-01-16T13:52:25;3.90;;;2.95;;
80179;SDS011;69505;52.134;5.438;2024-01-16T13:57:21;7.18;;;3.03;;
80179;SDS011;69505;52.134;5.438;2024-01-16T13:59:49;9.20;;;3.13;;
80179;SDS011;69505;52.134;5.438;2024-01-16T14:02:17;7.32;;;2.88;;
80179;SDS011;69505;52.134;5.438;2024-01-16T14:04:44;7.97;;;2.50;;
80179;SDS011;69505;52.134;5.438;2024-01-16T14:07:10;6.03;;;2.95;;
80179;SDS011;69505;52.134;5.438;2024-01-16T14:09:40;7.78;;;3.33;;
80179;SDS011;69505;52.134;5.438;2024-01-16T14:12:09;6.68;;;2.22;;
80179;SDS011;69505;52.134;5.438;2024-01-16T14:14:36;3.30;;;2.55;;
80179;SDS011;69505;52.134;5.438;2024-01-16T14:17:04;6.63;;;3.33;;
80179;SDS011;69505;52.134;5.438;2024-01-16T14:19:31;3.38;;;2.55;;
80179;SDS011;69505;52.134;5.438;2024-01-16T14:21:58;3.90;;;2.70;;
80179;SDS011;69505;52.134;5.438;2024-01-16T14:24:25;4.45;;;2.53;;
80179;SDS011;69505;52.134;5.438;2024-01-16T14:26:52;3.42;;;2.47;;
80179;SDS011;69505;52.134;5.438;2024-01-16T14:29:19;6.20;;;2.83;;
80179;SDS011;69505;52.134;5.438;2024-01-16T14:31:45;5.28;;;2.80;;
80179;SDS011;69505;52.134;5.438;2024-01-16T14:34:16;5.70;;;2.90;;
80179;SDS011;69505;52.134;5.438;2024-01-16T14:36:45;6.95;;;3.13;;
80179;SDS011;69505;52.134;5.438;2024-01-16T14:39:13;2.60;;;1.40;;
80179;SDS011;69505;52.134;5.438;2024-01-16T14:41:44;6.13;;;3.03;;
80179;SDS011;69505;52.134;5.438;2024-01-16T14:44:11;5.82;;;2.75;;
80179;SDS011;69505;52.134;5.438;2024-01-16T14:46:37;5.28;;;3.25;;
80179;SDS011;69505;52.134;5.438;2024-01-16T14:49:06;5.00;;;3.38;;
80179;SDS011;69505;52.134;5.438;2024-01-16T14:51:34;3.88;;;2.45;;
80179;SDS011;69505;52.134;5.438;2024-01-16T14:54:01;6.38;;;2.75;;
80179;SDS011;69505;52.134;5.438;2024-01-16T14:56:28;5.75;;;2.97;;
80179;SDS011;69505;52.134;5.438;2024-01-16T14:58:56;3.70;;;2.83;;
80179;SDS011;69505;52.134;5.438;2024-01-16T15:01:23;5.22;;;3.17;;
80179;SDS011;69505;52.134;5.438;2024-01-16T15:03:50;4.93;;;2.80;;
80179;SDS011;69505;52.134;5.438;2024-01-16T15:06:17;7.65;;;3.55;;
80179;SDS011;69505;52.134;5.438;2024-01-16T15:08:44;11.27;;;3.65;;
80179;SDS011;69505;52.134;5.438;2024-01-16T15:11:10;6.20;;;3.03;;
80179;SDS011;69505;52.134;5.438;2024-01-16T15:13:37;5.10;;;2.45;;
80179;SDS011;69505;52.134;5.438;2024-01-16T15:16:04;4.93;;;2.97;;